createdAt,value
2018-07-23T00:01:47.467Z,8.73
2018-07-23T00:04:15.526Z,7.87
2018-07-23T00:06:43.560Z,6.53
2018-07-23T00:09:11.589Z,6.00
2018-07-23T00:11:39.657Z,4.50
2018-07-23T00:14:07.733Z,4.63
2018-07-23T00:16:35.797Z,4.00
2018-07-23T00:19:03.858Z,4.27
2018-07-23T00:21:31.897Z,3.57
2018-07-23T00:24:00.000Z,4.40
2018-07-23T00:26:28.036Z,4.60
2018-07-23T00:28:56.094Z,4.40
2018-07-23T00:31:24.233Z,4.20
2018-07-23T00:33:52.268Z,3.27
2018-07-23T00:36:20.352Z,3.33
2018-07-23T00:38:48.200Z,3.17
2018-07-23T00:41:16.232Z,3.03
2018-07-23T00:43:44.282Z,3.07
2018-07-23T00:46:12.321Z,2.47
2018-07-23T00:48:40.369Z,2.70
2018-07-23T00:51:08.396Z,2.87
2018-07-23T00:53:36.348Z,2.67
2018-07-23T00:56:04.392Z,2.70
2018-07-23T00:58:32.432Z,2.97
2018-07-23T01:01:00.533Z,2.40
2018-07-23T01:03:28.561Z,2.53
2018-07-23T01:05:56.656Z,2.20
2018-07-23T01:08:24.489Z,2.67
2018-07-23T01:10:52.588Z,2.60
2018-07-23T01:13:20.632Z,2.63
2018-07-23T01:15:48.669Z,3.23
2018-07-23T01:18:16.725Z,2.37
2018-07-23T01:20:44.781Z,3.50
2018-07-23T01:23:12.883Z,2.70
2018-07-23T01:25:40.909Z,3.57
2018-07-23T01:28:08.964Z,3.30
2018-07-23T01:30:37.084Z,3.23
2018-07-23T01:33:05.124Z,4.00
2018-07-23T01:35:33.236Z,2.90
2018-07-23T01:38:01.297Z,2.97
2018-07-23T01:40:29.348Z,3.30
2018-07-23T01:42:57.423Z,3.17
2018-07-23T01:45:25.460Z,3.50
2018-07-23T01:47:53.520Z,3.10
2018-07-23T01:50:21.553Z,3.27
2018-07-23T01:52:49.600Z,3.50
2018-07-23T01:55:17.697Z,3.57
2018-07-23T01:57:45.712Z,3.37
2018-07-23T02:00:13.813Z,4.10
2018-07-23T02:02:41.761Z,4.30
2018-07-23T02:05:09.801Z,4.30
2018-07-23T02:07:37.952Z,4.70
2018-07-23T02:10:06.744Z,3.63
2018-07-23T02:12:34.832Z,4.03
2018-07-23T02:15:02.844Z,3.60
2018-07-23T02:17:30.880Z,4.07
2018-07-23T02:19:58.926Z,4.00
2018-07-23T02:22:26.965Z,3.73
2018-07-23T02:24:55.025Z,5.17
2018-07-23T02:27:23.072Z,3.97
2018-07-23T02:29:51.149Z,4.17
2018-07-23T02:32:19.076Z,4.17
2018-07-23T02:34:47.352Z,3.97
2018-07-23T02:37:15.402Z,3.83
2018-07-23T02:39:43.800Z,4.20
2018-07-23T02:42:11.834Z,3.80
2018-07-23T02:44:39.881Z,4.67
2018-07-23T02:47:08.681Z,5.53
2018-07-23T02:49:36.773Z,4.83
2018-07-23T02:52:04.828Z,4.97
2018-07-23T02:54:33.576Z,4.80
2018-07-23T02:57:01.601Z,5.17
2018-07-23T02:59:29.915Z,5.77
2018-07-23T03:01:57.929Z,4.87
2018-07-23T03:04:25.984Z,6.07
2018-07-23T03:06:54.082Z,5.13
2018-07-23T03:09:22.097Z,4.87
2018-07-23T03:11:50.140Z,5.83
2018-07-23T03:14:18.184Z,5.93
2018-07-23T03:16:46.239Z,5.07
2018-07-23T03:19:14.284Z,4.87
2018-07-23T03:21:42.389Z,5.83
2018-07-23T03:24:10.411Z,5.10
2018-07-23T03:26:38.437Z,4.73
2018-07-23T03:29:06.493Z,5.50
2018-07-23T03:31:34.549Z,5.40
2018-07-23T03:34:02.615Z,6.17
2018-07-23T03:36:30.640Z,6.03
2018-07-23T03:38:58.700Z,5.83
2018-07-23T03:41:26.539Z,6.00
2018-07-23T03:43:54.598Z,6.50
2018-07-23T03:46:22.712Z,6.43
2018-07-23T03:48:51.242Z,6.43
2018-07-23T03:51:19.279Z,7.53
2018-07-23T03:53:47.316Z,6.50
2018-07-23T03:56:15.379Z,8.27
2018-07-23T03:58:43.413Z,6.83
2018-07-23T04:01:11.372Z,8.13
2018-07-23T04:03:39.402Z,7.27
2018-07-23T04:06:07.464Z,8.23
2018-07-23T04:08:35.744Z,7.70
2018-07-23T04:11:03.808Z,7.73
2018-07-23T04:13:31.876Z,7.73
2018-07-23T04:15:59.961Z,7.73
2018-07-23T04:18:27.810Z,8.97
2018-07-23T04:20:55.847Z,8.33
2018-07-23T04:23:23.905Z,7.40
2018-07-23T04:25:51.989Z,7.70
2018-07-23T04:28:20.029Z,7.27
2018-07-23T04:30:48.133Z,7.27
2018-07-23T04:33:16.274Z,7.70
2018-07-23T04:35:44.312Z,7.67
2018-07-23T04:38:12.425Z,6.63
2018-07-23T04:40:40.438Z,6.87
2018-07-23T04:43:08.496Z,5.90
2018-07-23T04:45:36.544Z,6.70
2018-07-23T04:48:04.672Z,7.03
2018-07-23T04:50:32.787Z,6.43
2018-07-23T04:53:00.788Z,6.97
2018-07-23T04:55:28.739Z,7.70
2018-07-23T04:57:56.787Z,7.10
2018-07-23T05:00:24.853Z,6.93
2018-07-23T05:02:52.881Z,7.03
2018-07-23T05:05:20.840Z,7.47
2018-07-23T05:07:48.880Z,8.30
2018-07-23T05:10:16.948Z,9.47
2018-07-23T05:12:44.973Z,7.90
2018-07-23T05:15:13.053Z,8.77
2018-07-23T05:17:41.109Z,9.27
2018-07-23T05:20:09.156Z,8.57
2018-07-23T05:22:37.204Z,8.37
2018-07-23T05:25:05.284Z,8.70
2018-07-23T05:27:33.960Z,9.10
2018-07-23T05:30:02.029Z,9.63
2018-07-23T05:32:29.992Z,9.13
2018-07-23T05:34:58.092Z,9.10
2018-07-23T05:37:25.959Z,10.27
2018-07-23T05:39:54.006Z,8.70
2018-07-23T05:42:22.064Z,8.13
2018-07-23T05:44:50.208Z,8.50
2018-07-23T05:47:18.257Z,8.13
2018-07-23T05:49:46.322Z,8.10
2018-07-23T05:52:14.397Z,7.03
2018-07-23T05:54:42.680Z,8.23
2018-07-23T05:57:10.760Z,8.40
2018-07-23T05:59:38.824Z,8.60
2018-07-23T06:02:06.919Z,7.47
2018-07-23T06:04:34.848Z,7.90
2018-07-23T06:07:02.999Z,8.70
2018-07-23T06:09:30.936Z,6.30
2018-07-23T06:11:58.984Z,7.47
2018-07-23T06:14:27.040Z,6.90
2018-07-23T06:16:55.120Z,7.13
2018-07-23T06:19:23.153Z,9.33
2018-07-23T06:21:51.200Z,4.77
2018-07-23T06:24:19.264Z,5.90
2018-07-23T06:26:47.336Z,6.37
2018-07-23T06:29:15.400Z,8.23
2018-07-23T06:31:43.492Z,4.97
2018-07-23T06:34:11.541Z,6.67
2018-07-23T06:36:39.587Z,6.20
2018-07-23T06:39:08.375Z,7.87
2018-07-23T06:41:36.549Z,5.13
2018-07-23T06:44:04.601Z,4.63
2018-07-23T06:46:32.712Z,3.13
2018-07-23T06:49:00.849Z,3.43
2018-07-23T06:51:28.877Z,4.53
2018-07-23T06:53:56.991Z,2.67
2018-07-23T06:56:24.997Z,5.27
2018-07-23T06:58:53.384Z,3.40
2018-07-23T07:01:21.485Z,4.20
2018-07-23T07:03:49.478Z,4.20
2018-07-23T07:06:17.955Z,3.50
2018-07-23T07:08:45.945Z,4.10
2018-07-23T07:11:14.173Z,3.87
2018-07-23T07:13:42.251Z,2.73
2018-07-23T07:16:10.270Z,3.27
2018-07-23T07:18:38.592Z,4.10
2018-07-23T07:21:07.128Z,2.80
2018-07-23T07:23:35.176Z,4.23
2018-07-23T07:26:03.236Z,7.03
2018-07-23T07:28:31.308Z,4.73
2018-07-23T07:30:59.373Z,4.30
2018-07-23T07:33:27.486Z,4.83
2018-07-23T07:35:55.531Z,3.13
2018-07-23T07:38:23.639Z,3.07
2018-07-23T07:40:51.666Z,3.80
2018-07-23T07:43:19.712Z,4.00
2018-07-23T07:45:47.756Z,4.10
2018-07-23T07:48:15.824Z,3.90
2018-07-23T07:50:43.964Z,4.67
2018-07-23T07:53:12.077Z,5.10
2018-07-23T07:55:40.125Z,5.50
2018-07-23T07:58:08.281Z,5.73
2018-07-23T08:00:37.010Z,3.80
2018-07-23T08:03:05.043Z,4.07
2018-07-23T08:05:33.144Z,3.90
2018-07-23T08:08:01.200Z,4.77
2018-07-23T08:10:29.244Z,3.60
2018-07-23T08:12:57.381Z,3.90
2018-07-23T08:15:25.428Z,3.27
2018-07-23T08:17:53.572Z,4.47
2018-07-23T08:20:21.592Z,3.40
2018-07-23T08:22:49.653Z,3.50
2018-07-23T08:25:17.710Z,3.57
2018-07-23T08:27:45.829Z,2.77
2018-07-23T08:30:13.860Z,3.30
2018-07-23T08:32:41.962Z,3.20
2018-07-23T08:35:10.017Z,3.07
2018-07-23T08:37:38.057Z,3.40
2018-07-23T08:40:06.448Z,2.90
2018-07-23T08:42:34.624Z,3.17
2018-07-23T08:45:02.839Z,4.30
2018-07-23T08:47:30.812Z,3.30
2018-07-23T08:49:58.848Z,3.13
2018-07-23T08:52:26.908Z,3.27
2018-07-23T08:54:54.960Z,3.33
2018-07-23T08:57:23.113Z,3.30
2018-07-23T08:59:51.088Z,3.20
2018-07-23T09:02:19.168Z,3.40
2018-07-23T09:04:47.184Z,3.47
2018-07-23T09:07:15.240Z,3.97
2018-07-23T09:09:43.269Z,3.93
2018-07-23T09:12:11.336Z,3.20
2018-07-23T09:14:39.433Z,3.37
2018-07-23T09:17:07.528Z,3.60
2018-07-23T09:19:36.165Z,4.13
2018-07-23T09:22:04.523Z,3.93
2018-07-23T09:24:32.706Z,3.20
2018-07-23T09:27:00.864Z,3.90
2018-07-23T09:29:28.957Z,3.27
2018-07-23T09:31:57.006Z,3.53
2018-07-23T09:34:24.872Z,3.50
2018-07-23T09:36:52.941Z,3.23
2018-07-23T09:39:20.997Z,2.40
2018-07-23T09:41:49.056Z,2.93
2018-07-23T09:44:17.113Z,3.10
2018-07-23T09:46:45.169Z,2.73
2018-07-23T09:49:13.220Z,3.07
2018-07-23T09:51:41.289Z,2.50
2018-07-23T09:54:09.331Z,2.00
2018-07-23T09:56:37.372Z,2.23
2018-07-23T09:59:05.660Z,2.10
2018-07-23T10:01:33.769Z,2.47
2018-07-23T10:04:01.818Z,2.10
2018-07-23T10:06:29.873Z,2.03
2018-07-23T10:08:57.929Z,3.53
2018-07-23T10:11:25.929Z,2.07
2018-07-23T10:13:53.959Z,2.47
2018-07-23T10:16:22.833Z,2.60
2018-07-23T10:18:50.950Z,2.57
2018-07-23T10:21:19.012Z,2.23
2018-07-23T10:23:46.864Z,2.20
2018-07-23T10:26:14.924Z,2.60
2018-07-23T10:28:42.996Z,3.97
2018-07-23T10:31:11.056Z,2.50
2018-07-23T10:33:39.120Z,2.20
2018-07-23T10:36:07.325Z,2.00
2018-07-23T10:38:35.369Z,1.70
2018-07-23T10:41:03.433Z,2.07
2018-07-23T10:43:31.477Z,2.37
2018-07-23T10:45:59.737Z,2.10
2018-07-23T10:48:27.768Z,2.40
2018-07-23T10:50:56.173Z,1.90
2018-07-23T10:53:24.188Z,3.80
2018-07-23T10:55:52.248Z,2.40
2018-07-23T10:58:20.341Z,1.90
2018-07-23T11:00:48.416Z,1.97
2018-07-23T11:03:16.471Z,1.73
2018-07-23T11:05:44.608Z,2.50
2018-07-23T11:08:12.668Z,2.37
2018-07-23T11:10:40.753Z,2.73
2018-07-23T11:13:08.810Z,2.03
2018-07-23T11:15:36.908Z,2.07
2018-07-23T11:18:05.014Z,1.80
2018-07-23T11:20:33.056Z,1.50
2018-07-23T11:23:01.125Z,2.03
2018-07-23T11:25:40.666Z,1.90
2018-07-23T11:27:57.344Z,1.93
2018-07-23T11:30:25.376Z,2.23
2018-07-23T11:32:53.433Z,1.83
2018-07-23T11:35:21.461Z,1.77
2018-07-23T11:37:49.517Z,1.83
2018-07-23T11:40:17.554Z,2.10
2018-07-23T11:42:45.648Z,1.90
2018-07-23T11:45:13.671Z,1.43
2018-07-23T11:47:41.718Z,1.70
2018-07-23T11:50:09.933Z,1.50
2018-07-23T11:52:38.312Z,1.33
2018-07-23T11:55:06.368Z,1.93
2018-07-23T11:57:34.420Z,1.70
2018-07-23T12:00:02.485Z,2.07
2018-07-23T12:02:30.516Z,1.87
2018-07-23T12:04:58.636Z,2.50
2018-07-23T12:07:26.707Z,2.30
2018-07-23T12:09:54.769Z,1.80
2018-07-23T12:12:22.831Z,1.90
2018-07-23T12:14:50.868Z,2.13
2018-07-23T12:17:19.001Z,1.67
2018-07-23T12:19:47.172Z,1.70
2018-07-23T12:22:15.654Z,1.53
2018-07-23T12:24:43.833Z,1.73
2018-07-23T12:27:11.872Z,1.93
2018-07-23T12:29:39.949Z,1.90
2018-07-23T12:32:08.185Z,2.00
2018-07-23T12:34:36.012Z,1.97
2018-07-23T12:37:04.099Z,1.80
2018-07-23T12:39:32.245Z,2.87
2018-07-23T12:42:00.245Z,2.90
2018-07-23T12:44:28.273Z,3.00
2018-07-23T12:46:56.356Z,1.97
2018-07-23T12:49:24.421Z,2.37
2018-07-23T12:51:52.469Z,2.80
2018-07-23T12:54:20.533Z,1.77
2018-07-23T12:56:48.662Z,2.47
2018-07-23T12:59:16.741Z,1.90
2018-07-23T13:01:44.576Z,1.90
2018-07-23T13:04:12.608Z,1.67
2018-07-23T13:20:15.692Z,1.80
2018-07-23T13:22:43.720Z,1.70
2018-07-23T13:25:11.796Z,1.67
2018-07-23T13:27:39.881Z,1.97
2018-07-23T13:30:07.948Z,2.83
2018-07-23T13:32:36.005Z,2.07
2018-07-23T13:35:04.265Z,2.10
2018-07-23T13:37:32.328Z,1.70
2018-07-23T13:40:00.388Z,2.23
2018-07-23T13:42:28.512Z,2.40
2018-07-23T13:44:56.581Z,2.30
2018-07-23T13:47:24.860Z,2.97
2018-07-23T13:49:52.922Z,2.60
2018-07-23T13:52:21.004Z,2.23
2018-07-23T13:54:49.052Z,2.60
2018-07-23T13:57:17.168Z,2.70
2018-07-23T13:59:45.213Z,2.33
2018-07-23T14:02:13.417Z,2.63
2018-07-23T14:04:41.613Z,2.40
2018-07-23T14:07:18.472Z,1.97
2018-07-23T14:09:46.632Z,2.03
2018-07-23T14:12:14.715Z,2.37
2018-07-23T14:14:42.757Z,1.80
2018-07-23T14:17:10.824Z,2.00
2018-07-23T14:19:38.880Z,2.03
2018-07-23T14:22:07.089Z,1.80
2018-07-23T14:24:35.120Z,2.10
2018-07-23T14:27:03.189Z,2.10
2018-07-23T14:29:31.241Z,1.60
2018-07-23T14:31:59.271Z,1.57
2018-07-23T14:34:27.357Z,1.93
2018-07-23T14:36:55.396Z,2.20
2018-07-23T14:39:23.237Z,1.67
2018-07-23T14:41:51.293Z,2.17
2018-07-23T14:44:19.381Z,2.00
2018-07-23T14:46:47.401Z,1.90
2018-07-23T14:49:15.482Z,1.80
2018-07-23T14:51:43.521Z,1.90
2018-07-23T14:54:11.578Z,1.93
2018-07-23T14:56:39.648Z,2.33
2018-07-23T14:59:07.684Z,1.60
2018-07-23T15:01:35.729Z,1.60
2018-07-23T15:04:03.809Z,1.67
2018-07-23T15:06:31.845Z,1.80
2018-07-23T15:08:59.913Z,1.90
2018-07-23T15:11:27.957Z,2.10
2018-07-23T15:13:56.033Z,1.80
2018-07-23T15:16:24.085Z,1.90
2018-07-23T15:18:52.188Z,1.73
2018-07-23T15:21:20.248Z,1.83
2018-07-23T15:23:48.292Z,1.70
2018-07-23T15:26:16.346Z,2.00
2018-07-23T15:28:44.412Z,2.70
2018-07-23T15:31:12.486Z,2.47
2018-07-23T15:33:40.561Z,2.03
2018-07-23T15:36:08.628Z,2.13
2018-07-23T15:38:36.734Z,1.87
2018-07-23T15:41:04.740Z,2.30
2018-07-23T15:43:32.817Z,2.10
2018-07-23T15:46:01.021Z,2.30
2018-07-23T15:48:28.923Z,2.20
2018-07-23T15:50:57.004Z,1.80
2018-07-23T15:53:25.060Z,2.20
2018-07-23T15:55:53.108Z,2.10
2018-07-23T15:58:21.168Z,1.67
2018-07-23T16:00:49.274Z,2.00
2018-07-23T16:03:17.350Z,1.90
2018-07-23T16:05:45.408Z,2.50
2018-07-23T16:08:13.448Z,2.50
2018-07-23T16:10:41.518Z,1.80
2018-07-23T16:13:09.540Z,1.90
2018-07-23T16:15:37.597Z,2.27
2018-07-23T16:18:05.660Z,2.20
2018-07-23T16:20:33.713Z,1.90
2018-07-23T16:23:01.744Z,2.23
2018-07-23T16:25:29.788Z,2.20
2018-07-23T16:27:57.850Z,2.33
2018-07-23T16:30:25.921Z,2.00
2018-07-23T16:32:53.942Z,1.97
2018-07-23T16:35:21.987Z,1.80
2018-07-23T16:37:50.025Z,2.43
2018-07-23T16:40:18.064Z,2.10
2018-07-23T16:42:46.125Z,2.40
2018-07-23T16:45:14.894Z,1.70
2018-07-23T16:47:42.931Z,2.20
2018-07-23T16:50:11.087Z,1.80
2018-07-23T16:52:39.161Z,1.60
2018-07-23T16:55:07.188Z,1.90
2018-07-23T16:57:35.232Z,2.20
2018-07-23T17:00:03.396Z,2.30
2018-07-23T17:02:31.364Z,1.80
2018-07-23T17:04:59.390Z,1.90
2018-07-23T17:07:27.504Z,1.50
2018-07-23T17:09:55.551Z,1.97
2018-07-23T17:12:23.627Z,2.30
2018-07-23T17:14:51.664Z,2.20
2018-07-23T17:17:19.716Z,1.83
2018-07-23T17:19:47.756Z,1.87
2018-07-23T17:22:15.827Z,1.87
2018-07-23T17:24:44.098Z,1.97
2018-07-23T17:27:12.156Z,2.53
2018-07-23T17:29:40.198Z,2.47
2018-07-23T17:32:08.264Z,2.03
2018-07-23T17:34:36.311Z,2.00
2018-07-23T17:37:04.460Z,2.33
2018-07-23T17:39:32.293Z,1.53
2018-07-23T17:42:00.348Z,2.00
2018-07-23T17:44:28.468Z,1.80
2018-07-23T17:46:56.497Z,1.83
2018-07-23T17:49:24.525Z,2.00
2018-07-23T17:51:52.594Z,3.70
2018-07-23T17:54:20.621Z,1.97
2018-07-23T17:56:48.658Z,2.20
2018-07-23T17:59:16.708Z,1.87
2018-07-23T18:01:44.744Z,1.80
2018-07-23T18:04:12.805Z,1.80
2018-07-23T18:06:40.881Z,1.60
2018-07-23T18:09:10.285Z,2.03
2018-07-23T18:11:38.521Z,2.00
2018-07-23T18:14:06.599Z,1.60
2018-07-23T18:16:34.663Z,2.17
2018-07-23T18:19:02.948Z,1.83
2018-07-23T18:21:30.989Z,1.60
2018-07-23T18:23:59.037Z,1.87
2018-07-23T18:26:27.066Z,1.83
2018-07-23T18:28:55.113Z,1.67
2018-07-23T18:31:23.146Z,2.00
2018-07-23T18:33:51.209Z,1.87
2018-07-23T18:36:19.419Z,1.80
2018-07-23T18:38:47.547Z,1.93
2018-07-23T18:41:15.892Z,1.77
2018-07-23T18:43:43.945Z,1.77
2018-07-23T18:46:11.988Z,2.20
2018-07-23T18:49:50.279Z,1.77
2018-07-23T18:52:18.941Z,1.90
2018-07-23T18:54:48.272Z,2.00
2018-07-23T18:57:16.332Z,2.17
2018-07-23T18:59:44.407Z,2.17
2018-07-23T19:02:13.780Z,2.00
2018-07-23T19:04:42.520Z,2.40
2018-07-23T19:07:10.630Z,2.23
2018-07-23T19:09:38.680Z,2.40
2018-07-23T19:12:07.203Z,2.97
2018-07-23T19:14:35.310Z,3.50
2018-07-23T19:17:04.428Z,3.30
2018-07-23T19:19:32.485Z,3.10
2018-07-23T19:22:00.560Z,2.90
2018-07-23T19:24:28.612Z,3.00
2018-07-23T19:26:57.848Z,2.37
2018-07-23T19:29:25.913Z,2.77
2018-07-23T19:31:54.016Z,2.73
2018-07-23T19:34:22.072Z,2.73
2018-07-23T19:36:50.224Z,3.20
2018-07-23T19:39:19.488Z,2.53
2018-07-23T19:41:47.559Z,3.23
2018-07-23T19:44:15.624Z,2.87
2018-07-23T19:46:43.677Z,3.13
2018-07-23T19:49:11.734Z,3.20
2018-07-23T19:51:39.849Z,3.10
2018-07-23T19:54:08.496Z,2.63
2018-07-23T19:56:36.556Z,3.50
2018-07-23T19:59:04.628Z,2.57
2018-07-23T20:01:32.869Z,3.50
2018-07-23T20:04:01.041Z,3.00
2018-07-23T20:06:29.597Z,2.80
2018-07-23T20:08:58.748Z,3.03
2018-07-23T20:11:27.545Z,3.70
2018-07-23T20:13:55.612Z,3.13
2018-07-23T20:16:23.653Z,3.03
2018-07-23T20:18:51.756Z,3.00
2018-07-23T20:21:19.801Z,3.30
2018-07-23T20:23:47.864Z,3.30
2018-07-23T20:26:15.900Z,3.43
2018-07-23T20:28:43.980Z,3.57
2018-07-23T20:31:12.117Z,3.33
2018-07-23T20:33:40.185Z,3.33
2018-07-23T20:36:08.571Z,3.37
2018-07-23T20:38:36.869Z,3.63
2018-07-23T20:41:04.960Z,4.57
2018-07-23T20:43:33.714Z,4.60
2018-07-23T20:46:02.145Z,5.40
2018-07-23T20:48:30.176Z,3.87
2018-07-23T20:50:58.901Z,3.30
2018-07-23T20:53:26.965Z,3.33
2018-07-23T20:55:56.779Z,3.57
2018-07-23T20:58:25.985Z,4.30
2018-07-23T21:00:54.051Z,4.40
2018-07-23T21:03:22.072Z,3.57
2018-07-23T21:05:51.264Z,4.10
2018-07-23T21:08:19.328Z,4.37
2018-07-23T21:10:47.397Z,4.03
2018-07-23T21:13:16.964Z,4.03
2018-07-23T21:15:45.589Z,4.27
2018-07-23T21:18:13.595Z,4.23
2018-07-23T21:20:42.112Z,4.97
2018-07-23T21:23:10.869Z,4.20
2018-07-23T21:25:38.979Z,4.13
2018-07-23T21:28:08.258Z,4.07
2018-07-23T21:30:37.307Z,4.57
2018-07-23T21:33:06.857Z,4.57
2018-07-23T21:35:35.073Z,5.43
2018-07-23T21:38:03.188Z,5.57
2018-07-23T21:40:31.229Z,4.47
2018-07-23T21:42:59.333Z,4.57
2018-07-23T21:45:27.473Z,4.67
2018-07-23T21:48:00.027Z,4.90
2018-07-23T21:50:28.212Z,4.60
2018-07-23T21:52:56.312Z,4.57
2018-07-23T21:55:24.468Z,4.23
2018-07-23T21:57:52.292Z,4.37
2018-07-23T22:00:20.381Z,4.00
2018-07-23T22:02:48.464Z,4.67
2018-07-23T22:05:16.551Z,4.13
2018-07-23T22:07:44.585Z,3.97
2018-07-23T22:10:12.653Z,3.87
2018-07-23T22:12:40.740Z,4.90
2018-07-23T22:15:10.279Z,4.00
2018-07-23T22:17:38.368Z,4.17
2018-07-23T22:20:07.145Z,4.77
2018-07-23T22:22:35.227Z,4.20
2018-07-23T22:25:03.484Z,4.43
2018-07-23T22:27:31.700Z,4.73
2018-07-23T22:29:59.575Z,3.87
2018-07-23T22:32:27.644Z,4.30
2018-07-23T22:34:55.749Z,4.23
2018-07-23T22:37:23.820Z,4.10
2018-07-23T22:39:51.884Z,4.00
2018-07-23T22:42:19.947Z,4.00
2018-07-23T22:44:50.074Z,4.93
2018-07-23T22:47:18.285Z,4.23
2018-07-23T22:49:46.332Z,4.07
2018-07-23T22:52:14.199Z,4.30
2018-07-23T22:54:42.232Z,3.97
2018-07-23T22:57:10.493Z,3.83
2018-07-23T22:59:38.570Z,3.60
2018-07-23T23:02:07.176Z,4.17
2018-07-23T23:04:35.248Z,3.50
2018-07-23T23:07:03.332Z,3.20
2018-07-23T23:09:31.380Z,4.03
2018-07-23T23:11:59.450Z,3.67
2018-07-23T23:14:27.516Z,4.23
2018-07-23T23:16:55.636Z,3.37
2018-07-23T23:19:23.692Z,3.37
2018-07-23T23:21:51.865Z,3.60
2018-07-23T23:24:19.928Z,3.70
2018-07-23T23:26:47.976Z,3.83
2018-07-23T23:29:16.068Z,3.40
2018-07-23T23:31:44.117Z,4.33
2018-07-23T23:34:12.220Z,3.87
2018-07-23T23:36:40.076Z,3.80
2018-07-23T23:39:08.050Z,3.60
2018-07-23T23:41:36.096Z,3.33
2018-07-23T23:44:04.184Z,3.70
2018-07-23T23:46:35.181Z,4.17
2018-07-23T23:49:03.253Z,4.07
2018-07-23T23:51:31.464Z,4.47
2018-07-23T23:53:59.872Z,3.47
2018-07-23T23:56:27.941Z,3.60
2018-07-23T23:58:56.181Z,3.40
